sensor_id;sensor_type;location;lat;lon;timestamp;temperature;humidity
13808;DHT22;40769;51.512;5.494;2022-11-25T00:02:16;13.50;99.90
13808;DHT22;40769;51.512;5.494;2022-11-25T00:04:41;13.50;99.90
13808;DHT22;40769;51.512;5.494;2022-11-25T00:07:07;13.60;99.90
13808;DHT22;40769;51.512;5.494;2022-11-25T00:09:32;13.60;99.90
13808;DHT22;40769;51.512;5.494;2022-11-25T00:11:58;13.60;99.90
13808;DHT22;40769;51.512;5.494;2022-11-25T00:14:23;13.60;99.90
13808;DHT22;40769;51.512;5.494;2022-11-25T00:16:49;13.60;99.90
13808;DHT22;40769;51.512;5.494;2022-11-25T00:19:15;13.60;99.90
13808;DHT22;40769;51.512;5.494;2022-11-25T00:21:41;13.80;99.90
13808;DHT22;40769;51.512;5.494;2022-11-25T00:24:07;13.70;99.90
13808;DHT22;40769;51.512;5.494;2022-11-25T00:26:34;13.60;99.90
13808;DHT22;40769;51.512;5.494;2022-11-25T00:29:02;13.70;99.90
13808;DHT22;40769;51.512;5.494;2022-11-25T00:31:31;13.70;99.90
13808;DHT22;40769;51.512;5.494;2022-11-25T00:33:58;13.70;99.90
13808;DHT22;40769;51.512;5.494;2022-11-25T00:36:26;13.70;99.90
13808;DHT22;40769;51.512;5.494;2022-11-25T00:38:54;13.70;99.90
13808;DHT22;40769;51.512;5.494;2022-11-25T00:41:20;13.70;99.90
13808;DHT22;40769;51.512;5.494;2022-11-25T00:44:04;14.60;99.90
13808;DHT22;40769;51.512;5.494;2022-11-25T00:46:48;13.90;99.90
13808;DHT22;40769;51.512;5.494;2022-11-25T00:49:14;13.70;99.90
13808;DHT22;40769;51.512;5.494;2022-11-25T00:51:39;13.70;99.90
13808;DHT22;40769;51.512;5.494;2022-11-25T00:54:11;13.70;99.90
13808;DHT22;40769;51.512;5.494;2022-11-25T00:56:37;13.70;99.90
13808;DHT22;40769;51.512;5.494;2022-11-25T00:59:03;13.70;99.90
13808;DHT22;40769;51.512;5.494;2022-11-25T01:01:29;13.70;99.90
13808;DHT22;40769;51.512;5.494;2022-11-25T01:03:54;13.80;99.90
13808;DHT22;40769;51.512;5.494;2022-11-25T01:06:20;13.70;99.90
13808;DHT22;40769;51.512;5.494;2022-11-25T01:08:47;13.70;99.90
13808;DHT22;40769;51.512;5.494;2022-11-25T01:11:17;13.70;99.90
13808;DHT22;40769;51.512;5.494;2022-11-25T01:13:43;13.70;99.90
13808;DHT22;40769;51.512;5.494;2022-11-25T01:16:12;13.70;99.90
13808;DHT22;40769;51.512;5.494;2022-11-25T01:18:38;13.70;99.90
13808;DHT22;40769;51.512;5.494;2022-11-25T01:21:24;13.70;99.90
13808;DHT22;40769;51.512;5.494;2022-11-25T01:23:51;13.70;99.90
13808;DHT22;40769;51.512;5.494;2022-11-25T01:26:19;13.70;99.90
13808;DHT22;40769;51.512;5.494;2022-11-25T01:28:45;13.80;99.90
13808;DHT22;40769;51.512;5.494;2022-11-25T01:31:18;13.80;99.90
13808;DHT22;40769;51.512;5.494;2022-11-25T01:33:44;13.80;99.90
13808;DHT22;40769;51.512;5.494;2022-11-25T01:36:13;13.80;99.90
13808;DHT22;40769;51.512;5.494;2022-11-25T01:38:40;13.80;99.90
13808;DHT22;40769;51.512;5.494;2022-11-25T01:41:07;13.80;99.90
13808;DHT22;40769;51.512;5.494;2022-11-25T01:43:33;13.80;99.90
13808;DHT22;40769;51.512;5.494;2022-11-25T01:46:21;13.80;99.90
13808;DHT22;40769;51.512;5.494;2022-11-25T01:49:02;13.90;99.90
13808;DHT22;40769;51.512;5.494;2022-11-25T01:54:01;14.60;99.90
13808;DHT22;40769;51.512;5.494;2022-11-25T01:56:31;13.90;99.90
13808;DHT22;40769;51.512;5.494;2022-11-25T01:58:58;13.80;99.90
13808;DHT22;40769;51.512;5.494;2022-11-25T02:01:23;14.00;99.90
13808;DHT22;40769;51.512;5.494;2022-11-25T02:03:51;13.80;99.90
13808;DHT22;40769;51.512;5.494;2022-11-25T02:06:23;13.80;99.90
13808;DHT22;40769;51.512;5.494;2022-11-25T02:08:51;14.00;99.90
13808;DHT22;40769;51.512;5.494;2022-11-25T02:11:18;13.90;99.90
13808;DHT22;40769;51.512;5.494;2022-11-25T02:13:46;13.90;99.90
13808;DHT22;40769;51.512;5.494;2022-11-25T02:16:13;13.90;99.90
13808;DHT22;40769;51.512;5.494;2022-11-25T02:18:38;14.10;99.90
13808;DHT22;40769;51.512;5.494;2022-11-25T02:21:04;13.80;99.90
13808;DHT22;40769;51.512;5.494;2022-11-25T02:23:54;13.80;99.90
13808;DHT22;40769;51.512;5.494;2022-11-25T02:26:22;13.80;99.90
13808;DHT22;40769;51.512;5.494;2022-11-25T02:28:48;13.90;99.90
13808;DHT22;40769;51.512;5.494;2022-11-25T02:31:19;13.90;99.90
13808;DHT22;40769;51.512;5.494;2022-11-25T02:33:45;13.80;99.90
13808;DHT22;40769;51.512;5.494;2022-11-25T02:36:19;13.90;99.90
13808;DHT22;40769;51.512;5.494;2022-11-25T02:41:17;13.80;99.90
13808;DHT22;40769;51.512;5.494;2022-11-25T02:43:44;13.70;99.90
13808;DHT22;40769;51.512;5.494;2022-11-25T02:46:15;13.70;99.90
13808;DHT22;40769;51.512;5.494;2022-11-25T02:48:41;13.60;99.90
13808;DHT22;40769;51.512;5.494;2022-11-25T02:51:10;13.50;99.90
13808;DHT22;40769;51.512;5.494;2022-11-25T02:53:36;13.40;99.90
13808;DHT22;40769;51.512;5.494;2022-11-25T02:56:01;13.50;99.90
13808;DHT22;40769;51.512;5.494;2022-11-25T02:58:27;13.20;99.90
13808;DHT22;40769;51.512;5.494;2022-11-25T03:00:53;13.00;99.90
13808;DHT22;40769;51.512;5.494;2022-11-25T03:03:18;13.00;99.90
13808;DHT22;40769;51.512;5.494;2022-11-25T03:05:44;12.90;99.90
13808;DHT22;40769;51.512;5.494;2022-11-25T03:08:10;13.20;99.90
13808;DHT22;40769;51.512;5.494;2022-11-25T03:10:36;12.70;99.90
13808;DHT22;40769;51.512;5.494;2022-11-25T03:13:02;12.60;99.90
13808;DHT22;40769;51.512;5.494;2022-11-25T03:15:28;12.60;99.90
13808;DHT22;40769;51.512;5.494;2022-11-25T03:17:53;12.70;99.90
13808;DHT22;40769;51.512;5.494;2022-11-25T03:20:19;12.50;99.90
13808;DHT22;40769;51.512;5.494;2022-11-25T03:22:45;12.50;99.90
13808;DHT22;40769;51.512;5.494;2022-11-25T03:25:12;12.40;99.90
13808;DHT22;40769;51.512;5.494;2022-11-25T03:27:39;12.40;99.90
13808;DHT22;40769;51.512;5.494;2022-11-25T03:30:08;12.40;99.90
13808;DHT22;40769;51.512;5.494;2022-11-25T03:32:34;12.40;99.90
13808;DHT22;40769;51.512;5.494;2022-11-25T03:35:00;12.50;99.90
13808;DHT22;40769;51.512;5.494;2022-11-25T03:37:25;12.40;99.90
13808;DHT22;40769;51.512;5.494;2022-11-25T03:39:51;12.30;99.90
13808;DHT22;40769;51.512;5.494;2022-11-25T03:42:17;12.30;99.90
13808;DHT22;40769;51.512;5.494;2022-11-25T03:44:42;12.40;99.90
13808;DHT22;40769;51.512;5.494;2022-11-25T03:47:08;12.40;99.90
13808;DHT22;40769;51.512;5.494;2022-11-25T03:49:34;12.20;99.90
13808;DHT22;40769;51.512;5.494;2022-11-25T03:51:59;12.20;99.90
13808;DHT22;40769;51.512;5.494;2022-11-25T03:54:25;12.20;99.90
13808;DHT22;40769;51.512;5.494;2022-11-25T03:56:51;12.20;99.90
13808;DHT22;40769;51.512;5.494;2022-11-25T03:59:16;12.20;99.90
13808;DHT22;40769;51.512;5.494;2022-11-25T04:01:42;12.20;99.90
13808;DHT22;40769;51.512;5.494;2022-11-25T04:04:08;12.20;99.90
13808;DHT22;40769;51.512;5.494;2022-11-25T04:06:33;12.30;99.90
13808;DHT22;40769;51.512;5.494;2022-11-25T04:08:59;12.20;99.90
13808;DHT22;40769;51.512;5.494;2022-11-25T04:11:24;12.30;99.90
13808;DHT22;40769;51.512;5.494;2022-11-25T04:14:10;12.20;99.90
13808;DHT22;40769;51.512;5.494;2022-11-25T04:16:35;12.20;99.90
13808;DHT22;40769;51.512;5.494;2022-11-25T04:19:01;13.00;99.90
13808;DHT22;40769;51.512;5.494;2022-11-25T04:21:34;12.30;99.90
13808;DHT22;40769;51.512;5.494;2022-11-25T04:23:59;12.30;99.90
13808;DHT22;40769;51.512;5.494;2022-11-25T04:26:25;12.30;99.90
13808;DHT22;40769;51.512;5.494;2022-11-25T04:28:50;12.40;99.90
13808;DHT22;40769;51.512;5.494;2022-11-25T04:31:16;12.40;99.90
13808;DHT22;40769;51.512;5.494;2022-11-25T04:33:42;12.30;99.90
13808;DHT22;40769;51.512;5.494;2022-11-25T04:36:08;12.40;99.90
13808;DHT22;40769;51.512;5.494;2022-11-25T04:38:33;12.30;99.90
13808;DHT22;40769;51.512;5.494;2022-11-25T04:40:59;12.20;99.90
13808;DHT22;40769;51.512;5.494;2022-11-25T04:43:25;12.30;99.90
13808;DHT22;40769;51.512;5.494;2022-11-25T04:45:51;12.20;99.90
13808;DHT22;40769;51.512;5.494;2022-11-25T04:48:18;12.20;99.90
13808;DHT22;40769;51.512;5.494;2022-11-25T04:50:43;12.60;99.90
13808;DHT22;40769;51.512;5.494;2022-11-25T04:53:09;12.10;99.90
13808;DHT22;40769;51.512;5.494;2022-11-25T04:55:35;12.10;99.90
13808;DHT22;40769;51.512;5.494;2022-11-25T04:58:00;12.10;99.90
13808;DHT22;40769;51.512;5.494;2022-11-25T05:00:26;12.30;99.90
13808;DHT22;40769;51.512;5.494;2022-11-25T05:02:52;12.10;99.90
13808;DHT22;40769;51.512;5.494;2022-11-25T05:05:18;12.00;99.90
13808;DHT22;40769;51.512;5.494;2022-11-25T05:07:44;12.10;99.90
13808;DHT22;40769;51.512;5.494;2022-11-25T05:10:09;12.00;99.90
13808;DHT22;40769;51.512;5.494;2022-11-25T05:12:35;12.00;99.90
13808;DHT22;40769;51.512;5.494;2022-11-25T05:15:01;12.10;99.90
13808;DHT22;40769;51.512;5.494;2022-11-25T05:17:30;12.00;99.90
13808;DHT22;40769;51.512;5.494;2022-11-25T05:19:56;12.00;99.90
13808;DHT22;40769;51.512;5.494;2022-11-25T05:22:30;12.20;99.90
13808;DHT22;40769;51.512;5.494;2022-11-25T05:24:56;12.10;99.90
13808;DHT22;40769;51.512;5.494;2022-11-25T05:27:22;12.00;99.90
13808;DHT22;40769;51.512;5.494;2022-11-25T05:29:48;11.90;99.90
13808;DHT22;40769;51.512;5.494;2022-11-25T05:32:14;11.90;99.90
13808;DHT22;40769;51.512;5.494;2022-11-25T05:34:41;11.90;99.90
13808;DHT22;40769;51.512;5.494;2022-11-25T05:37:07;11.80;99.90
13808;DHT22;40769;51.512;5.494;2022-11-25T05:39:33;11.90;99.90
13808;DHT22;40769;51.512;5.494;2022-11-25T05:41:59;12.20;99.90
13808;DHT22;40769;51.512;5.494;2022-11-25T05:44:25;11.70;99.90
13808;DHT22;40769;51.512;5.494;2022-11-25T05:46:50;11.70;99.90
13808;DHT22;40769;51.512;5.494;2022-11-25T05:49:17;11.70;99.90
13808;DHT22;40769;51.512;5.494;2022-11-25T05:51:43;11.60;99.90
13808;DHT22;40769;51.512;5.494;2022-11-25T05:54:09;11.60;99.90
13808;DHT22;40769;51.512;5.494;2022-11-25T05:56:35;11.60;99.90
13808;DHT22;40769;51.512;5.494;2022-11-25T05:59:01;11.50;99.90
13808;DHT22;40769;51.512;5.494;2022-11-25T06:01:27;11.60;99.90
13808;DHT22;40769;51.512;5.494;2022-11-25T06:03:53;11.50;99.90
13808;DHT22;40769;51.512;5.494;2022-11-25T06:06:19;11.40;99.90
13808;DHT22;40769;51.512;5.494;2022-11-25T06:08:44;11.40;99.90
13808;DHT22;40769;51.512;5.494;2022-11-25T06:11:13;11.40;99.90
13808;DHT22;40769;51.512;5.494;2022-11-25T06:13:39;11.40;99.90
13808;DHT22;40769;51.512;5.494;2022-11-25T06:16:10;11.50;99.90
13808;DHT22;40769;51.512;5.494;2022-11-25T06:18:37;11.30;99.90
13808;DHT22;40769;51.512;5.494;2022-11-25T06:21:04;11.40;99.90
13808;DHT22;40769;51.512;5.494;2022-11-25T06:23:30;11.40;99.90
13808;DHT22;40769;51.512;5.494;2022-11-25T06:26:06;11.30;99.90
13808;DHT22;40769;51.512;5.494;2022-11-25T06:28:32;11.30;99.90
13808;DHT22;40769;51.512;5.494;2022-11-25T06:31:06;11.40;99.90
13808;DHT22;40769;51.512;5.494;2022-11-25T06:33:32;11.30;99.90
13808;DHT22;40769;51.512;5.494;2022-11-25T06:36:00;11.20;99.90
13808;DHT22;40769;51.512;5.494;2022-11-25T06:38:29;11.30;99.90
13808;DHT22;40769;51.512;5.494;2022-11-25T06:40:59;11.20;99.90
13808;DHT22;40769;51.512;5.494;2022-11-25T06:43:24;11.60;99.90
13808;DHT22;40769;51.512;5.494;2022-11-25T06:45:50;11.30;99.90
13808;DHT22;40769;51.512;5.494;2022-11-25T06:48:16;11.20;99.90
13808;DHT22;40769;51.512;5.494;2022-11-25T06:50:41;11.20;99.90
13808;DHT22;40769;51.512;5.494;2022-11-25T06:53:07;11.20;99.90
13808;DHT22;40769;51.512;5.494;2022-11-25T06:55:32;11.10;99.90
13808;DHT22;40769;51.512;5.494;2022-11-25T06:57:58;11.10;99.90
13808;DHT22;40769;51.512;5.494;2022-11-25T07:00:25;11.20;99.90
13808;DHT22;40769;51.512;5.494;2022-11-25T07:02:50;11.10;99.90
13808;DHT22;40769;51.512;5.494;2022-11-25T07:05:16;11.10;99.90
13808;DHT22;40769;51.512;5.494;2022-11-25T07:07:42;11.10;99.90
13808;DHT22;40769;51.512;5.494;2022-11-25T07:10:08;11.00;99.90
13808;DHT22;40769;51.512;5.494;2022-11-25T07:12:33;11.00;99.90
13808;DHT22;40769;51.512;5.494;2022-11-25T07:14:59;11.00;99.90
13808;DHT22;40769;51.512;5.494;2022-11-25T07:17:25;11.00;99.90
13808;DHT22;40769;51.512;5.494;2022-11-25T07:19:50;11.00;99.90
13808;DHT22;40769;51.512;5.494;2022-11-25T07:22:16;11.00;99.90
13808;DHT22;40769;51.512;5.494;2022-11-25T07:24:41;11.00;99.90
13808;DHT22;40769;51.512;5.494;2022-11-25T07:27:07;11.00;99.90
13808;DHT22;40769;51.512;5.494;2022-11-25T07:29:33;11.00;99.90
13808;DHT22;40769;51.512;5.494;2022-11-25T07:32:00;11.00;99.90
13808;DHT22;40769;51.512;5.494;2022-11-25T07:34:25;11.00;99.90
13808;DHT22;40769;51.512;5.494;2022-11-25T07:36:51;11.10;99.90
13808;DHT22;40769;51.512;5.494;2022-11-25T07:39:19;11.00;99.90
13808;DHT22;40769;51.512;5.494;2022-11-25T07:41:47;11.50;99.90
13808;DHT22;40769;51.512;5.494;2022-11-25T07:44:13;11.10;99.90
13808;DHT22;40769;51.512;5.494;2022-11-25T07:46:43;11.10;99.90
13808;DHT22;40769;51.512;5.494;2022-11-25T07:49:11;11.10;99.90
13808;DHT22;40769;51.512;5.494;2022-11-25T07:51:43;11.20;99.90
13808;DHT22;40769;51.512;5.494;2022-11-25T07:54:11;11.20;99.90
13808;DHT22;40769;51.512;5.494;2022-11-25T07:56:39;11.20;99.90
13808;DHT22;40769;51.512;5.494;2022-11-25T07:59:07;11.30;99.90
13808;DHT22;40769;51.512;5.494;2022-11-25T08:01:32;11.30;99.90
13808;DHT22;40769;51.512;5.494;2022-11-25T08:03:58;11.40;99.90
13808;DHT22;40769;51.512;5.494;2022-11-25T08:06:26;11.40;99.90
13808;DHT22;40769;51.512;5.494;2022-11-25T08:08:54;11.20;99.90
13808;DHT22;40769;51.512;5.494;2022-11-25T08:11:29;11.60;99.90
13808;DHT22;40769;51.512;5.494;2022-11-25T08:13:56;11.70;99.90
13808;DHT22;40769;51.512;5.494;2022-11-25T08:16:24;11.80;99.90
13808;DHT22;40769;51.512;5.494;2022-11-25T08:18:53;12.00;99.90
13808;DHT22;40769;51.512;5.494;2022-11-25T08:21:28;12.10;99.90
13808;DHT22;40769;51.512;5.494;2022-11-25T08:23:54;12.00;99.90
13808;DHT22;40769;51.512;5.494;2022-11-25T08:26:22;12.40;99.90
13808;DHT22;40769;51.512;5.494;2022-11-25T08:28:50;12.20;99.90
13808;DHT22;40769;51.512;5.494;2022-11-25T08:31:19;12.30;99.90
13808;DHT22;40769;51.512;5.494;2022-11-25T08:33:45;12.40;99.90
13808;DHT22;40769;51.512;5.494;2022-11-25T08:36:11;12.40;99.90
13808;DHT22;40769;51.512;5.494;2022-11-25T08:38:38;12.50;99.90
13808;DHT22;40769;51.512;5.494;2022-11-25T08:41:16;12.60;99.90
13808;DHT22;40769;51.512;5.494;2022-11-25T08:43:43;12.70;99.90
13808;DHT22;40769;51.512;5.494;2022-11-25T08:46:11;12.70;99.90
13808;DHT22;40769;51.512;5.494;2022-11-25T08:48:37;12.80;99.90
13808;DHT22;40769;51.512;5.494;2022-11-25T08:51:09;12.80;99.90
13808;DHT22;40769;51.512;5.494;2022-11-25T08:53:36;12.90;99.90
13808;DHT22;40769;51.512;5.494;2022-11-25T08:56:03;13.00;99.90
13808;DHT22;40769;51.512;5.494;2022-11-25T08:58:28;13.00;99.90
13808;DHT22;40769;51.512;5.494;2022-11-25T09:00:54;13.00;99.90
13808;DHT22;40769;51.512;5.494;2022-11-25T09:03:20;13.10;99.90
13808;DHT22;40769;51.512;5.494;2022-11-25T09:05:45;13.10;99.90
13808;DHT22;40769;51.512;5.494;2022-11-25T09:08:11;13.20;99.90
13808;DHT22;40769;51.512;5.494;2022-11-25T09:10:38;13.20;99.90
13808;DHT22;40769;51.512;5.494;2022-11-25T09:13:04;13.30;99.90
13808;DHT22;40769;51.512;5.494;2022-11-25T09:15:30;13.30;99.90
13808;DHT22;40769;51.512;5.494;2022-11-25T09:18:04;13.30;99.90
13808;DHT22;40769;51.512;5.494;2022-11-25T09:20:31;13.40;99.90
13808;DHT22;40769;51.512;5.494;2022-11-25T09:23:01;13.40;99.90
13808;DHT22;40769;51.512;5.494;2022-11-25T09:25:27;13.40;99.90
13808;DHT22;40769;51.512;5.494;2022-11-25T09:27:54;13.50;99.90
13808;DHT22;40769;51.512;5.494;2022-11-25T09:30:20;13.50;99.90
13808;DHT22;40769;51.512;5.494;2022-11-25T09:32:48;13.60;99.90
13808;DHT22;40769;51.512;5.494;2022-11-25T09:35:14;13.60;99.90
13808;DHT22;40769;51.512;5.494;2022-11-25T09:37:39;13.70;99.90
13808;DHT22;40769;51.512;5.494;2022-11-25T09:54:58;14.00;99.90
13808;DHT22;40769;51.512;5.494;2022-11-25T10:03:02;14.10;99.90
13808;DHT22;40769;51.512;5.494;2022-11-25T10:05:33;14.10;99.90
13808;DHT22;40769;51.512;5.494;2022-11-25T10:08:22;14.60;99.90
13808;DHT22;40769;51.512;5.494;2022-11-25T10:10:57;14.20;99.90
13808;DHT22;40769;51.512;5.494;2022-11-25T10:14:02;14.30;99.90
13808;DHT22;40769;51.512;5.494;2022-11-25T10:19:23;14.40;99.90
13808;DHT22;40769;51.512;5.494;2022-11-25T10:21:47;14.50;99.90
13808;DHT22;40769;51.512;5.494;2022-11-25T10:24:14;14.40;99.90
13808;DHT22;40769;51.512;5.494;2022-11-25T10:26:44;14.50;99.90
13808;DHT22;40769;51.512;5.494;2022-11-25T10:31:41;13.50;99.90
13808;DHT22;40769;51.512;5.494;2022-11-25T10:37:03;14.60;99.90
13808;DHT22;40769;51.512;5.494;2022-11-25T10:39:33;14.60;99.90
13808;DHT22;40769;51.512;5.494;2022-11-25T10:44:32;14.70;99.90
13808;DHT22;40769;51.512;5.494;2022-11-25T10:50:14;14.70;99.90
13808;DHT22;40769;51.512;5.494;2022-11-25T10:55:30;14.70;99.90
13808;DHT22;40769;51.512;5.494;2022-11-25T10:57:58;14.80;99.90
13808;DHT22;40769;51.512;5.494;2022-11-25T11:02:56;14.10;99.90
13808;DHT22;40769;51.512;5.494;2022-11-25T11:05:24;14.80;99.90
13808;DHT22;40769;51.512;5.494;2022-11-25T11:10:39;14.10;99.90
13808;DHT22;40769;51.512;5.494;2022-11-25T11:13:21;14.80;99.90
13808;DHT22;40769;51.512;5.494;2022-11-25T11:15:48;14.80;99.90
13808;DHT22;40769;51.512;5.494;2022-11-25T11:18:20;14.80;99.90
13808;DHT22;40769;51.512;5.494;2022-11-25T11:20:51;14.80;99.90
13808;DHT22;40769;51.512;5.494;2022-11-25T11:23:17;14.80;99.90
13808;DHT22;40769;51.512;5.494;2022-11-25T11:26:05;14.70;99.90
13808;DHT22;40769;51.512;5.494;2022-11-25T11:31:13;14.70;99.90
13808;DHT22;40769;51.512;5.494;2022-11-25T11:33:54;14.70;99.90
13808;DHT22;40769;51.512;5.494;2022-11-25T11:42:03;14.70;99.90
13808;DHT22;40769;51.512;5.494;2022-11-25T12:07:38;14.60;99.90
13808;DHT22;40769;51.512;5.494;2022-11-25T12:10:18;14.60;99.90
13808;DHT22;40769;51.512;5.494;2022-11-25T12:13:05;14.60;99.90
13808;DHT22;40769;51.512;5.494;2022-11-25T12:15:55;14.60;99.90
13808;DHT22;40769;51.512;5.494;2022-11-25T12:30:24;14.70;99.90
13808;DHT22;40769;51.512;5.494;2022-11-25T12:34:58;14.80;99.90
13808;DHT22;40769;51.512;5.494;2022-11-25T12:37:53;14.80;99.90
13808;DHT22;40769;51.512;5.494;2022-11-25T12:40:41;14.80;99.90
13808;DHT22;40769;51.512;5.494;2022-11-25T12:43:48;14.80;99.90
13808;DHT22;40769;51.512;5.494;2022-11-25T12:46:23;14.80;99.90
13808;DHT22;40769;51.512;5.494;2022-11-25T12:48:52;14.80;99.90
13808;DHT22;40769;51.512;5.494;2022-11-25T12:51:32;14.80;99.90
13808;DHT22;40769;51.512;5.494;2022-11-25T12:57:23;14.90;99.90
13808;DHT22;40769;51.512;5.494;2022-11-25T13:00:27;14.90;99.90
13808;DHT22;40769;51.512;5.494;2022-11-25T13:03:18;15.00;99.90
13808;DHT22;40769;51.512;5.494;2022-11-25T13:17:08;15.10;99.90
13808;DHT22;40769;51.512;5.494;2022-11-25T13:19:36;15.10;99.90
13808;DHT22;40769;51.512;5.494;2022-11-25T13:22:04;15.10;99.90
13808;DHT22;40769;51.512;5.494;2022-11-25T13:26:56;15.20;99.90
13808;DHT22;40769;51.512;5.494;2022-11-25T13:32:02;15.30;99.90
13808;DHT22;40769;51.512;5.494;2022-11-25T13:34:33;15.40;99.90
13808;DHT22;40769;51.512;5.494;2022-11-25T13:37:01;15.40;99.90
13808;DHT22;40769;51.512;5.494;2022-11-25T13:39:36;15.70;99.90
13808;DHT22;40769;51.512;5.494;2022-11-25T13:44:57;15.50;99.90
13808;DHT22;40769;51.512;5.494;2022-11-25T13:47:37;15.60;99.90
13808;DHT22;40769;51.512;5.494;2022-11-25T13:57:46;15.50;99.90
13808;DHT22;40769;51.512;5.494;2022-11-25T14:02:46;15.50;99.90
13808;DHT22;40769;51.512;5.494;2022-11-25T14:05:38;15.50;99.90
13808;DHT22;40769;51.512;5.494;2022-11-25T14:14:07;15.70;99.90
13808;DHT22;40769;51.512;5.494;2022-11-25T14:25:22;15.70;99.90
13808;DHT22;40769;51.512;5.494;2022-11-25T14:27:56;15.60;99.90
13808;DHT22;40769;51.512;5.494;2022-11-25T14:30:23;15.50;99.90
13808;DHT22;40769;51.512;5.494;2022-11-25T14:32:55;15.40;99.90
13808;DHT22;40769;51.512;5.494;2022-11-25T14:35:44;15.50;99.90
13808;DHT22;40769;51.512;5.494;2022-11-25T14:38:24;15.30;99.90
13808;DHT22;40769;51.512;5.494;2022-11-25T14:41:01;15.20;99.90
13808;DHT22;40769;51.512;5.494;2022-11-25T14:43:29;15.10;99.90
13808;DHT22;40769;51.512;5.494;2022-11-25T14:46:12;15.00;99.90
13808;DHT22;40769;51.512;5.494;2022-11-25T14:48:40;14.90;99.90
13808;DHT22;40769;51.512;5.494;2022-11-25T14:51:08;14.90;99.90
13808;DHT22;40769;51.512;5.494;2022-11-25T14:53:43;14.80;99.90
13808;DHT22;40769;51.512;5.494;2022-11-25T14:56:10;14.70;99.90
13808;DHT22;40769;51.512;5.494;2022-11-25T14:58:50;14.70;99.90
13808;DHT22;40769;51.512;5.494;2022-11-25T15:03:48;14.70;99.90
13808;DHT22;40769;51.512;5.494;2022-11-25T15:06:15;14.70;99.90
13808;DHT22;40769;51.512;5.494;2022-11-25T15:08:45;14.70;99.90
13808;DHT22;40769;51.512;5.494;2022-11-25T15:11:20;14.70;99.90
13808;DHT22;40769;51.512;5.494;2022-11-25T15:14:02;14.70;99.90
13808;DHT22;40769;51.512;5.494;2022-11-25T15:16:37;14.70;99.90
13808;DHT22;40769;51.512;5.494;2022-11-25T15:19:05;14.70;99.90
13808;DHT22;40769;51.512;5.494;2022-11-25T15:21:32;14.70;99.90
13808;DHT22;40769;51.512;5.494;2022-11-25T15:23:59;14.70;99.90
13808;DHT22;40769;51.512;5.494;2022-11-25T15:26:30;14.70;99.90
13808;DHT22;40769;51.512;5.494;2022-11-25T15:28:59;14.70;99.90
13808;DHT22;40769;51.512;5.494;2022-11-25T15:31:34;14.60;99.90
13808;DHT22;40769;51.512;5.494;2022-11-25T15:34:06;14.70;99.90
13808;DHT22;40769;51.512;5.494;2022-11-25T15:36:32;14.80;99.90
13808;DHT22;40769;51.512;5.494;2022-11-25T15:41:56;14.80;99.90
13808;DHT22;40769;51.512;5.494;2022-11-25T15:44:29;14.80;99.90
13808;DHT22;40769;51.512;5.494;2022-11-25T15:52:22;14.80;99.90
13808;DHT22;40769;51.512;5.494;2022-11-25T15:54:50;14.70;99.90
13808;DHT22;40769;51.512;5.494;2022-11-25T15:57:26;14.70;99.90
13808;DHT22;40769;51.512;5.494;2022-11-25T16:10:19;14.30;99.90
13808;DHT22;40769;51.512;5.494;2022-11-25T16:13:23;14.20;99.90
13808;DHT22;40769;51.512;5.494;2022-11-25T16:16:09;14.20;99.90
13808;DHT22;40769;51.512;5.494;2022-11-25T16:21:04;14.10;99.90
13808;DHT22;40769;51.512;5.494;2022-11-25T16:23:36;13.90;99.90
13808;DHT22;40769;51.512;5.494;2022-11-25T16:28:40;13.90;99.90
13808;DHT22;40769;51.512;5.494;2022-11-25T16:31:14;13.80;99.90
13808;DHT22;40769;51.512;5.494;2022-11-25T16:33:40;13.80;99.90
13808;DHT22;40769;51.512;5.494;2022-11-25T16:36:05;13.80;99.90
13808;DHT22;40769;51.512;5.494;2022-11-25T16:38:31;13.70;99.90
13808;DHT22;40769;51.512;5.494;2022-11-25T16:40:57;13.70;99.90
13808;DHT22;40769;51.512;5.494;2022-11-25T16:43:25;13.70;99.90
13808;DHT22;40769;51.512;5.494;2022-11-25T16:45:52;13.70;99.90
13808;DHT22;40769;51.512;5.494;2022-11-25T16:48:22;13.70;99.90
13808;DHT22;40769;51.512;5.494;2022-11-25T16:50:49;13.60;99.90
13808;DHT22;40769;51.512;5.494;2022-11-25T16:53:16;13.70;99.90
13808;DHT22;40769;51.512;5.494;2022-11-25T16:55:44;13.70;99.90
13808;DHT22;40769;51.512;5.494;2022-11-25T16:58:23;13.70;99.90
13808;DHT22;40769;51.512;5.494;2022-11-25T17:00:54;13.80;99.90
13808;DHT22;40769;51.512;5.494;2022-11-25T17:03:21;13.70;99.90
13808;DHT22;40769;51.512;5.494;2022-11-25T17:05:50;13.60;99.90
13808;DHT22;40769;51.512;5.494;2022-11-25T17:08:16;13.60;99.90
13808;DHT22;40769;51.512;5.494;2022-11-25T17:10:42;13.50;99.90
13808;DHT22;40769;51.512;5.494;2022-11-25T17:13:20;13.40;99.90
13808;DHT22;40769;51.512;5.494;2022-11-25T17:15:48;13.40;99.90
13808;DHT22;40769;51.512;5.494;2022-11-25T17:18:15;13.20;99.90
13808;DHT22;40769;51.512;5.494;2022-11-25T17:20:43;13.50;99.90
13808;DHT22;40769;51.512;5.494;2022-11-25T17:23:15;13.20;99.90
13808;DHT22;40769;51.512;5.494;2022-11-25T17:25:48;13.20;99.90
13808;DHT22;40769;51.512;5.494;2022-11-25T17:28:19;13.10;99.90
13808;DHT22;40769;51.512;5.494;2022-11-25T17:30:46;13.10;99.90
13808;DHT22;40769;51.512;5.494;2022-11-25T17:33:14;13.10;99.90
13808;DHT22;40769;51.512;5.494;2022-11-25T17:35:41;13.00;99.90
13808;DHT22;40769;51.512;5.494;2022-11-25T17:38:12;13.00;99.90
13808;DHT22;40769;51.512;5.494;2022-11-25T17:40:39;12.90;99.90
13808;DHT22;40769;51.512;5.494;2022-11-25T17:43:07;12.90;99.90
13808;DHT22;40769;51.512;5.494;2022-11-25T17:45:33;12.90;99.90
13808;DHT22;40769;51.512;5.494;2022-11-25T17:47:59;12.80;99.90
13808;DHT22;40769;51.512;5.494;2022-11-25T17:50:24;13.00;99.90
13808;DHT22;40769;51.512;5.494;2022-11-25T17:52:51;12.80;99.90
13808;DHT22;40769;51.512;5.494;2022-11-25T17:55:18;12.70;99.90
13808;DHT22;40769;51.512;5.494;2022-11-25T17:57:47;12.70;99.90
13808;DHT22;40769;51.512;5.494;2022-11-25T18:00:15;12.70;99.90
13808;DHT22;40769;51.512;5.494;2022-11-25T18:02:41;12.70;99.90
13808;DHT22;40769;51.512;5.494;2022-11-25T18:05:13;12.70;99.90
13808;DHT22;40769;51.512;5.494;2022-11-25T18:07:39;12.90;99.90
13808;DHT22;40769;51.512;5.494;2022-11-25T18:10:05;12.70;99.90
13808;DHT22;40769;51.512;5.494;2022-11-25T18:12:31;12.70;99.90
13808;DHT22;40769;51.512;5.494;2022-11-25T18:14:59;12.60;99.90
13808;DHT22;40769;51.512;5.494;2022-11-25T18:17:32;12.60;99.90
13808;DHT22;40769;51.512;5.494;2022-11-25T18:19:58;12.60;99.90
13808;DHT22;40769;51.512;5.494;2022-11-25T18:22:24;12.50;99.90
13808;DHT22;40769;51.512;5.494;2022-11-25T18:24:50;12.50;99.90
13808;DHT22;40769;51.512;5.494;2022-11-25T18:29:44;12.40;99.90
13808;DHT22;40769;51.512;5.494;2022-11-25T18:32:10;12.50;99.90